Time;durP1;ratioP1;P1;durP2;ratioP2;P2;SDS_P1;SDS_P2;PMS_P1;PMS_P2;Temp;Humidity;BMP_temperature;BMP_pressure;BME280_temperature;BME280_humidity;BME280_pressure;Samples;Min_cycle;Max_cycle;Signal;HPM_P1;HPM_P2
2022/05/06 00:01:27;;;;;;;;;;;;;;;;;;5070742;28;904;-65
2022/05/06 00:03:52;;;;;;;;;;;;;;;;;;5070032;28;816;-66
2022/05/06 00:06:18;;;;;;;;;;;;;;;;;;5070286;28;907;-65
2022/05/06 00:08:43;;;;;;;;;;;;;;;;;;5070787;28;1901;-65
2022/05/06 00:11:08;;;;;;;;;;;;;;;;;;5052357;28;1148;-64
2022/05/06 00:13:35;;;;;;;;;;;;;;;;;;5070461;28;963;-65
2022/05/06 00:16:00;;;;;;;;;;;;;;;;;;5070934;28;848;-65
2022/05/06 00:18:26;;;;;;;;;;;;;;;;;;5070442;28;1043;-65
2022/05/06 00:20:51;;;;;;;;;;;;;;;;;;5071491;28;853;-64
2022/05/06 00:23:16;;;;;;;;;;;;;;;;;;5070365;28;817;-65
2022/05/06 00:25:41;;;;;;;;;;;;;;;;;;5070803;28;1071;-65
2022/05/06 00:28:07;;;;;;;;;;;;;;;;;;5070381;28;1914;-65
2022/05/06 00:30:33;;;;;;;;;;;;;;;;;;5069307;28;887;-65
2022/05/06 00:32:58;;;;;;;;;;;;;;;;;;5070709;28;860;-65
2022/05/06 00:35:23;;;;;;;;;;;;;;;;;;5069254;28;797;-65
2022/05/06 00:37:49;;;;;;;;;;;;;;;;;;5070936;28;828;-64
2022/05/06 00:40:14;;;;;;;;;;;;;;;;;;5070529;28;955;-64
2022/05/06 00:42:39;;;;;;;;;;;;;;;;;;5069195;28;909;-64
2022/05/06 00:45:05;;;;;;;;;;;;;;;;;;5070491;28;876;-64
2022/05/06 00:47:33;;;;;;;;;;;;;;;;;;5070352;28;1906;-65
2022/05/06 00:50:00;;;;;;;;;;;;;;;;;;5070162;28;1615;-65
2022/05/06 00:52:25;;;;;;;;;;;;;;;;;;5072565;28;785;-65
2022/05/06 00:54:51;;;;;;;;;;;;;;;;;;5073976;28;888;-65
2022/05/06 00:57:17;;;;;;;;;;;;;;;;;;5072168;28;995;-65
2022/05/06 01:02:26;;;;;;;;;;;;;;;;;;5073575;28;718;-65
2022/05/06 01:04:52;;;;;;;;;;;;;;;;;;5073652;28;746;-65
2022/05/06 01:07:19;;;;;;;;;;;;;;;;;;5073203;28;1898;-65
2022/05/06 01:09:44;;;;;;;;;;;;;;;;;;5071603;28;1772;-65
2022/05/06 01:12:10;;;;;;;;;;;;;;;;;;5073180;28;943;-65
2022/05/06 01:14:35;;;;;;;;;;;;;;;;;;5071836;28;1286;-65
2022/05/06 01:17:00;;;;;;;;;;;;;;;;;;5073572;28;986;-65
2022/05/06 01:19:25;;;;;;;;;;;;;;;;;;5073123;28;840;-65
2022/05/06 01:21:53;;;;;;;;;;;;;;;;;;5073298;28;900;-65
2022/05/06 01:24:19;;;;;;;;;;;;;;;;;;5072917;28;766;-65
2022/05/06 01:26:59;;;;;;;;;;;;;;;;;;5073173;28;1906;-65
2022/05/06 01:29:24;;;;;;;;;;;;;;;;;;5072958;28;1046;-65
2022/05/06 01:31:50;;;;;;;;;;;;;;;;;;5055452;28;1341;-65
2022/05/06 01:34:17;;;;;;;;;;;;;;;;;;5072959;28;742;-65
2022/05/06 01:36:43;;;;;;;;;;;;;;;;;;5071487;28;1301;-66
2022/05/06 01:39:09;;;;;;;;;;;;;;;;;;5071138;28;1752;-66
2022/05/06 01:41:37;;;;;;;;;;;;;;;;;;5072752;28;962;-65
2022/05/06 01:44:07;;;;;;;;;;;;;;;;;;5072813;28;931;-65
2022/05/06 01:46:35;;;;;;;;;;;;;;;;;;5072622;28;828;-66
2022/05/06 01:49:02;;;;;;;;;;;;;;;;;;5072324;28;1952;-65
2022/05/06 01:51:27;;;;;;;;;;;;;;;;;;5071021;28;1230;-65
2022/05/06 01:53:52;;;;;;;;;;;;;;;;;;5073024;28;987;-65
2022/05/06 01:56:18;;;;;;;;;;;;;;;;;;5071119;28;1286;-65
2022/05/06 01:58:44;;;;;;;;;;;;;;;;;;5072836;28;879;-65
2022/05/06 02:01:09;;;;;;;;;;;;;;;;;;5071961;28;861;-63
2022/05/06 02:06:18;;;;;;;;;;;;;;;;;;5072988;28;976;-65
2022/05/06 02:08:43;;;;;;;;;;;;;;;;;;5072460;28;1961;-65
2022/05/06 02:11:08;;;;;;;;;;;;;;;;;;5072742;28;907;-64
2022/05/06 02:13:34;;;;;;;;;;;;;;;;;;5072553;28;861;-65
2022/05/06 02:16:00;;;;;;;;;;;;;;;;;;5072582;28;836;-65
2022/05/06 02:18:26;;;;;;;;;;;;;;;;;;5071458;28;1172;-64
2022/05/06 02:20:53;;;;;;;;;;;;;;;;;;5071274;28;1314;-64
2022/05/06 02:23:18;;;;;;;;;;;;;;;;;;5072889;28;899;-65
2022/05/06 02:25:43;;;;;;;;;;;;;;;;;;5072808;28;809;-64
2022/05/06 02:28:09;;;;;;;;;;;;;;;;;;5072108;28;1978;-65
2022/05/06 02:33:23;;;;;;;;;;;;;;;;;;5072503;28;707;-65
2022/05/06 02:35:48;;;;;;;;;;;;;;;;;;5070645;28;1332;-66
2022/05/06 02:38:14;;;;;;;;;;;;;;;;;;5070781;28;750;-66
2022/05/06 02:40:39;;;;;;;;;;;;;;;;;;5071858;28;932;-66
2022/05/06 02:43:05;;;;;;;;;;;;;;;;;;5053914;28;1212;-66
2022/05/06 02:45:31;;;;;;;;;;;;;;;;;;5072012;28;867;-66
2022/05/06 02:47:57;;;;;;;;;;;;;;;;;;5071867;28;1901;-66
2022/05/06 02:50:23;;;;;;;;;;;;;;;;;;5071949;28;861;-66
2022/05/06 02:52:48;;;;;;;;;;;;;;;;;;5071465;28;879;-65
2022/05/06 02:55:13;;;;;;;;;;;;;;;;;;5071834;28;877;-66
2022/05/06 02:57:38;;;;;;;;;;;;;;;;;;5071369;28;903;-66
2022/05/06 03:00:04;;;;;;;;;;;;;;;;;;5071544;28;805;-65
2022/05/06 03:02:29;;;;;;;;;;;;;;;;;;5071667;28;1314;-66
2022/05/06 03:04:55;;;;;;;;;;;;;;;;;;5071835;28;852;-66
2022/05/06 03:07:20;;;;;;;;;;;;;;;;;;5071661;28;1957;-66
2022/05/06 03:09:46;;;;;;;;;;;;;;;;;;5071050;28;1068;-66
2022/05/06 03:12:11;;;;;;;;;;;;;;;;;;5070698;28;881;-66
2022/05/06 03:14:36;;;;;;;;;;;;;;;;;;5071495;28;804;-64
2022/05/06 03:17:01;;;;;;;;;;;;;;;;;;5069363;28;1163;-65
2022/05/06 03:19:27;;;;;;;;;;;;;;;;;;5071227;28;1029;-65
2022/05/06 03:21:53;;;;;;;;;;;;;;;;;;5069652;28;856;-65
2022/05/06 03:24:18;;;;;;;;;;;;;;;;;;5070818;28;888;-64
2022/05/06 03:26:45;;;;;;;;;;;;;;;;;;5071068;28;1034;-65
2022/05/06 03:29:10;;;;;;;;;;;;;;;;;;5071219;28;868;-64
2022/05/06 03:31:36;;;;;;;;;;;;;;;;;;5071260;28;907;-65
2022/05/06 03:34:02;;;;;;;;;;;;;;;;;;5070684;28;836;-64
2022/05/06 03:36:27;;;;;;;;;;;;;;;;;;5071766;28;864;-65
2022/05/06 03:38:52;;;;;;;;;;;;;;;;;;5069693;28;1453;-65
2022/05/06 03:41:17;;;;;;;;;;;;;;;;;;5069771;28;1175;-64
2022/05/06 03:43:43;;;;;;;;;;;;;;;;;;5069722;28;1243;-65
2022/05/06 03:46:08;;;;;;;;;;;;;;;;;;5071315;28;781;-66
2022/05/06 03:48:36;;;;;;;;;;;;;;;;;;5071205;28;1969;-66
2022/05/06 03:53:45;;;;;;;;;;;;;;;;;;5071085;28;604;-67
2022/05/06 03:56:11;;;;;;;;;;;;;;;;;;5071057;28;797;-66
2022/05/06 03:58:36;;;;;;;;;;;;;;;;;;5071169;28;856;-66
2022/05/06 04:01:03;;;;;;;;;;;;;;;;;;5070870;28;884;-63
2022/05/06 04:03:29;;;;;;;;;;;;;;;;;;5069701;28;1344;-64
2022/05/06 04:05:54;;;;;;;;;;;;;;;;;;5069656;28;1172;-64
2022/05/06 04:08:19;;;;;;;;;;;;;;;;;;5070326;28;1890;-64
2022/05/06 04:10:45;;;;;;;;;;;;;;;;;;5070050;28;770;-64
2022/05/06 04:13:10;;;;;;;;;;;;;;;;;;5069020;28;1148;-65
2022/05/06 04:15:36;;;;;;;;;;;;;;;;;;5070629;28;828;-65
2022/05/06 04:18:01;;;;;;;;;;;;;;;;;;5068652;28;668;-65
2022/05/06 04:25:55;;;;;;;;;;;;;;;;;;5074554;28;627;-65
2022/05/06 04:28:21;;;;;;;;;;;;;;;;;;5074365;28;1992;-64
2022/05/06 04:30:46;;;;;;;;;;;;;;;;;;5074383;28;916;-65
2022/05/06 04:33:11;;;;;;;;;;;;;;;;;;5073736;28;825;-65
2022/05/06 04:35:36;;;;;;;;;;;;;;;;;;5074674;28;924;-64
2022/05/06 04:38:02;;;;;;;;;;;;;;;;;;5072291;28;1149;-65
2022/05/06 04:40:27;;;;;;;;;;;;;;;;;;5074040;28;971;-64
2022/05/06 04:42:52;;;;;;;;;;;;;;;;;;5072460;28;1340;-64
2022/05/06 04:45:17;;;;;;;;;;;;;;;;;;5072649;28;1354;-65
2022/05/06 04:47:43;;;;;;;;;;;;;;;;;;5072859;28;1965;-65
2022/05/06 04:50:08;;;;;;;;;;;;;;;;;;5073531;28;951;-65
2022/05/06 04:52:33;;;;;;;;;;;;;;;;;;5074043;28;920;-65
2022/05/06 04:54:59;;;;;;;;;;;;;;;;;;5072355;28;1273;-65
2022/05/06 04:57:24;;;;;;;;;;;;;;;;;;5073843;28;837;-64
2022/05/06 04:59:49;;;;;;;;;;;;;;;;;;5072459;28;1464;-64
2022/05/06 05:02:16;;;;;;;;;;;;;;;;;;5073192;28;818;-65
2022/05/06 05:04:41;;;;;;;;;;;;;;;;;;5074184;28;837;-64
2022/05/06 05:07:07;;;;;;;;;;;;;;;;;;5073442;28;1898;-65
2022/05/06 05:09:32;;;;;;;;;;;;;;;;;;5073700;28;1242;-65
2022/05/06 05:11:57;;;;;;;;;;;;;;;;;;5072143;28;1220;-65
2022/05/06 05:14:23;;;;;;;;;;;;;;;;;;5072248;28;1230;-65
2022/05/06 05:16:50;;;;;;;;;;;;;;;;;;5073795;28;828;-64
2022/05/06 05:19:15;;;;;;;;;;;;;;;;;;5073684;28;794;-65
2022/05/06 05:21:41;;;;;;;;;;;;;;;;;;5072171;28;1503;-65
2022/05/06 05:24:07;;;;;;;;;;;;;;;;;;5073615;28;766;-66
2022/05/06 05:26:32;;;;;;;;;;;;;;;;;;5074256;28;868;-65
2022/05/06 05:28:57;;;;;;;;;;;;;;;;;;5072149;28;1910;-66
2022/05/06 05:31:22;;;;;;;;;;;;;;;;;;5073762;28;817;-65
2022/05/06 05:33:49;;;;;;;;;;;;;;;;;;5073755;28;888;-65
2022/05/06 05:36:14;;;;;;;;;;;;;;;;;;5072135;28;891;-66
2022/05/06 05:38:39;;;;;;;;;;;;;;;;;;5072008;28;1759;-66
2022/05/06 05:41:04;;;;;;;;;;;;;;;;;;5071387;28;1374;-66
2022/05/06 05:48:58;;;;;;;;;;;;;;;;;;5073053;28;1902;-66
2022/05/06 05:51:24;;;;;;;;;;;;;;;;;;5071753;28;903;-66
2022/05/06 05:53:49;;;;;;;;;;;;;;;;;;5071671;28;1318;-66
2022/05/06 05:56:15;;;;;;;;;;;;;;;;;;5071230;28;794;-66
2022/05/06 05:58:40;;;;;;;;;;;;;;;;;;5073041;28;825;-66
2022/05/06 06:01:05;;;;;;;;;;;;;;;;;;5070981;28;825;-66
2022/05/06 06:03:30;;;;;;;;;;;;;;;;;;5073047;28;820;-66
2022/05/06 06:05:56;;;;;;;;;;;;;;;;;;5072235;28;963;-66
2022/05/06 06:08:23;;;;;;;;;;;;;;;;;;5053486;28;1902;-66
2022/05/06 06:10:48;;;;;;;;;;;;;;;;;;5072517;28;876;-66
2022/05/06 06:13:16;;;;;;;;;;;;;;;;;;5070836;28;1261;-66
2022/05/06 06:15:41;;;;;;;;;;;;;;;;;;5072015;28;920;-65
2022/05/06 06:18:06;;;;;;;;;;;;;;;;;;5071790;28;1031;-65
2022/05/06 06:20:32;;;;;;;;;;;;;;;;;;5072788;28;955;-66
2022/05/06 06:22:57;;;;;;;;;;;;;;;;;;5072129;28;852;-66
2022/05/06 06:25:22;;;;;;;;;;;;;;;;;;5070853;28;1211;-65
2022/05/06 06:27:48;;;;;;;;;;;;;;;;;;5073034;28;1918;-65
2022/05/06 06:30:13;;;;;;;;;;;;;;;;;;5072076;28;995;-65
2022/05/06 06:32:38;;;;;;;;;;;;;;;;;;5072480;28;839;-65
2022/05/06 06:35:04;;;;;;;;;;;;;;;;;;5072368;28;849;-64
2022/05/06 06:37:32;;;;;;;;;;;;;;;;;;5054724;28;1203;-65
2022/05/06 06:39:57;;;;;;;;;;;;;;;;;;5071288;28;884;-64
2022/05/06 06:42:23;;;;;;;;;;;;;;;;;;5070661;28;1277;-65
2022/05/06 06:44:48;;;;;;;;;;;;;;;;;;5071121;28;1292;-65
2022/05/06 06:47:14;;;;;;;;;;;;;;;;;;5052248;28;1926;-65
2022/05/06 06:49:39;;;;;;;;;;;;;;;;;;5070890;28;1293;-66
2022/05/06 06:52:04;;;;;;;;;;;;;;;;;;5071609;28;975;-63
2022/05/06 06:54:30;;;;;;;;;;;;;;;;;;5070405;28;758;-64
2022/05/06 06:56:55;;;;;;;;;;;;;;;;;;5072167;28;916;-64
2022/05/06 06:59:20;;;;;;;;;;;;;;;;;;5071742;28;888;-65
2022/05/06 07:01:46;;;;;;;;;;;;;;;;;;5070488;28;1206;-65
2022/05/06 07:04:11;;;;;;;;;;;;;;;;;;5071929;28;770;-65
2022/05/06 07:12:05;;;;;;;;;;;;;;;;;;5071799;28;687;-65
2022/05/06 07:14:30;;;;;;;;;;;;;;;;;;5070149;28;841;-65
2022/05/06 07:16:55;;;;;;;;;;;;;;;;;;5053636;28;1193;-65
2022/05/06 07:19:21;;;;;;;;;;;;;;;;;;5071105;28;888;-66
2022/05/06 07:21:47;;;;;;;;;;;;;;;;;;5071613;28;666;-65
2022/05/06 07:24:12;;;;;;;;;;;;;;;;;;5069386;28;1154;-65
2022/05/06 07:26:37;;;;;;;;;;;;;;;;;;5071723;28;884;-65
2022/05/06 07:29:02;;;;;;;;;;;;;;;;;;5071365;28;1957;-66
2022/05/06 07:31:28;;;;;;;;;;;;;;;;;;5071689;28;828;-65
2022/05/06 07:33:54;;;;;;;;;;;;;;;;;;5070147;28;1333;-65
2022/05/06 07:36:20;;;;;;;;;;;;;;;;;;5069633;28;1160;-66
2022/05/06 07:38:45;;;;;;;;;;;;;;;;;;5069822;28;1194;-65
2022/05/06 07:41:10;;;;;;;;;;;;;;;;;;5070668;28;778;-64
2022/05/06 07:43:36;;;;;;;;;;;;;;;;;;5070917;28;911;-65
2022/05/06 07:46:02;;;;;;;;;;;;;;;;;;5070802;28;824;-65
2022/05/06 07:48:27;;;;;;;;;;;;;;;;;;5070476;28;1965;-65
2022/05/06 07:50:52;;;;;;;;;;;;;;;;;;5071416;28;908;-65
2022/05/06 07:53:19;;;;;;;;;;;;;;;;;;5069978;28;936;-65
2022/05/06 07:55:45;;;;;;;;;;;;;;;;;;5070686;28;927;-65
2022/05/06 07:58:10;;;;;;;;;;;;;;;;;;5068765;28;1112;-65
2022/05/06 08:00:36;;;;;;;;;;;;;;;;;;5070025;28;880;-65
2022/05/06 08:05:47;;;;;;;;;;;;;;;;;;5070711;28;680;-65
2022/05/06 08:08:12;;;;;;;;;;;;;;;;;;5070046;28;1894;-65
2022/05/06 08:10:39;;;;;;;;;;;;;;;;;;5068863;28;1202;-65
2022/05/06 08:13:05;;;;;;;;;;;;;;;;;;5069157;28;920;-65
2022/05/06 08:15:30;;;;;;;;;;;;;;;;;;5070224;28;785;-65
2022/05/06 08:17:55;;;;;;;;;;;;;;;;;;5070279;28;873;-65
2022/05/06 08:20:21;;;;;;;;;;;;;;;;;;5070050;28;976;-66
2022/05/06 08:22:46;;;;;;;;;;;;;;;;;;5070222;28;825;-66
2022/05/06 08:25:12;;;;;;;;;;;;;;;;;;5069948;28;829;-67
2022/05/06 08:27:41;;;;;;;;;;;;;;;;;;5070143;28;1914;-66
2022/05/06 08:30:07;;;;;;;;;;;;;;;;;;5070140;28;888;-66
2022/05/06 08:32:32;;;;;;;;;;;;;;;;;;5070035;28;1059;-66
2022/05/06 08:34:58;;;;;;;;;;;;;;;;;;5070576;28;966;-66
2022/05/06 08:37:25;;;;;;;;;;;;;;;;;;5068575;28;1199;-66
2022/05/06 08:39:50;;;;;;;;;;;;;;;;;;5069155;28;1044;-66
2022/05/06 08:42:17;;;;;;;;;;;;;;;;;;5068550;28;1293;-66
2022/05/06 08:52:58;;;;;;;;;;;;;;;;;;5070535;28;897;-64
2022/05/06 08:55:23;;;;;;;;;;;;;;;;;;5070447;28;855;-64
2022/05/06 08:57:48;;;;;;;;;;;;;;;;;;5052489;28;1399;-64
2022/05/06 09:00:14;;;;;;;;;;;;;;;;;;5068772;28;754;-65
2022/05/06 09:02:39;;;;;;;;;;;;;;;;;;5070201;28;983;-64
2022/05/06 09:05:17;;;;;;;;;;;;;;;;;;5070778;28;943;-64
2022/05/06 09:07:53;;;;;;;;;;;;;;;;;;5070047;28;1960;-66
2022/05/06 09:10:18;;;;;;;;;;;;;;;;;;5070494;28;1036;-66
2022/05/06 09:12:45;;;;;;;;;;;;;;;;;;5073541;28;932;-66
2022/05/06 09:17:56;;;;;;;;;;;;;;;;;;5074259;28;684;-66
2022/05/06 09:20:22;;;;;;;;;;;;;;;;;;5073786;28;892;-66
2022/05/06 09:22:50;;;;;;;;;;;;;;;;;;5073925;28;828;-66
2022/05/06 09:25:34;;;;;;;;;;;;;;;;;;5073481;28;918;-66
2022/05/06 09:28:00;;;;;;;;;;;;;;;;;;5073102;28;1967;-66
2022/05/06 09:30:25;;;;;;;;;;;;;;;;;;5070431;28;1175;-66
2022/05/06 09:32:50;;;;;;;;;;;;;;;;;;5073126;28;947;-66
2022/05/06 09:35:15;;;;;;;;;;;;;;;;;;5071430;28;956;-66
2022/05/06 09:37:47;;;;;;;;;;;;;;;;;;5073029;28;852;-65
2022/05/06 09:40:16;;;;;;;;;;;;;;;;;;5073068;28;845;-65
2022/05/06 09:42:44;;;;;;;;;;;;;;;;;;5072757;28;920;-65
2022/05/06 09:45:11;;;;;;;;;;;;;;;;;;5071815;28;773;-65
2022/05/06 09:47:37;;;;;;;;;;;;;;;;;;5072840;28;1889;-65
2022/05/06 09:50:03;;;;;;;;;;;;;;;;;;5072842;28;899;-65
2022/05/06 09:52:29;;;;;;;;;;;;;;;;;;5072359;28;895;-64
2022/05/06 09:54:56;;;;;;;;;;;;;;;;;;5071831;28;782;-65
2022/05/06 09:57:21;;;;;;;;;;;;;;;;;;5072642;28;1058;-65
2022/05/06 09:59:47;;;;;;;;;;;;;;;;;;5072711;28;802;-65
2022/05/06 10:02:13;;;;;;;;;;;;;;;;;;5070898;28;829;-65
2022/05/06 10:04:38;;;;;;;;;;;;;;;;;;5072256;28;778;-64
2022/05/06 10:07:06;;;;;;;;;;;;;;;;;;5072282;28;1898;-65
2022/05/06 10:09:33;;;;;;;;;;;;;;;;;;5072234;28;1088;-65
2022/05/06 10:12:01;;;;;;;;;;;;;;;;;;5070938;28;1294;-65
2022/05/06 10:14:26;;;;;;;;;;;;;;;;;;5072033;28;872;-65
2022/05/06 10:16:52;;;;;;;;;;;;;;;;;;5072287;28;801;-65
2022/05/06 10:19:25;;;;;;;;;;;;;;;;;;5070676;28;924;-65
2022/05/06 10:21:50;;;;;;;;;;;;;;;;;;5072091;28;816;-65
2022/05/06 10:24:16;;;;;;;;;;;;;;;;;;5072374;28;1064;-65
2022/05/06 10:26:45;;;;;;;;;;;;;;;;;;5070807;28;1223;-65
2022/05/06 10:32:25;;;;;;;;;;;;;;;;;;5071881;28;672;-66
2022/05/06 10:35:04;;;;;;;;;;;;;;;;;;5071865;28;1095;-65
2022/05/06 10:37:37;;;;;;;;;;;;;;;;;;5071867;28;884;-65
2022/05/06 10:40:21;;;;;;;;;;;;;;;;;;5071951;28;954;-66
2022/05/06 10:42:46;;;;;;;;;;;;;;;;;;5070479;28;1187;-65
2022/05/06 10:45:21;;;;;;;;;;;;;;;;;;5071984;28;805;-65
2022/05/06 10:47:47;;;;;;;;;;;;;;;;;;5071915;28;1943;-65
2022/05/06 10:50:14;;;;;;;;;;;;;;;;;;5069370;28;1286;-65
2022/05/06 10:52:39;;;;;;;;;;;;;;;;;;5081778;28;1200;-65
2022/05/06 10:55:04;;;;;;;;;;;;;;;;;;5087773;28;1136;-66
2022/05/06 10:57:31;;;;;;;;;;;;;;;;;;5090538;28;1194;-65
2022/05/06 10:59:57;;;;;;;;;;;;;;;;;;5090982;28;1088;-65
2022/05/06 11:02:23;;;;;;;;;;;;;;;;;;5090491;28;808;-65
2022/05/06 11:04:54;;;;;;;;;;;;;;;;;;5091966;28;887;-65
2022/05/06 11:07:20;;;;;;;;;;;;;;;;;;5090323;28;1961;-65
2022/05/06 11:09:48;;;;;;;;;;;;;;;;;;5072519;28;1229;-65
2022/05/06 11:12:37;;;;;;;;;;;;;;;;;;5091409;28;902;-65
2022/05/06 11:15:03;;;;;;;;;;;;;;;;;;5091192;28;871;-65
2022/05/06 11:17:31;;;;;;;;;;;;;;;;;;5089846;28;1393;-65
2022/05/06 11:19:56;;;;;;;;;;;;;;;;;;5089216;28;1335;-64
2022/05/06 11:22:23;;;;;;;;;;;;;;;;;;5087859;28;1190;-64
2022/05/06 11:24:48;;;;;;;;;;;;;;;;;;5090231;28;898;-64
2022/05/06 11:27:14;;;;;;;;;;;;;;;;;;5090685;28;1910;-65
2022/05/06 11:29:55;;;;;;;;;;;;;;;;;;5089952;28;964;-65
2022/05/06 11:32:21;;;;;;;;;;;;;;;;;;5091117;28;915;-65
2022/05/06 11:34:49;;;;;;;;;;;;;;;;;;5090418;28;973;-65
2022/05/06 11:37:24;;;;;;;;;;;;;;;;;;5089349;28;1162;-65
2022/05/06 11:39:50;;;;;;;;;;;;;;;;;;5091177;28;1069;-65
2022/05/06 11:42:22;;;;;;;;;;;;;;;;;;5090985;28;761;-65
2022/05/06 11:47:38;;;;;;;;;;;;;;;;;;5091016;28;1951;-65
2022/05/06 11:50:03;;;;;;;;;;;;;;;;;;5090545;28;1006;-65
2022/05/06 11:52:29;;;;;;;;;;;;;;;;;;5090706;28;817;-64
2022/05/06 11:54:54;;;;;;;;;;;;;;;;;;5089611;28;1322;-64
2022/05/06 11:57:20;;;;;;;;;;;;;;;;;;5089505;28;785;-64
2022/05/06 11:59:45;;;;;;;;;;;;;;;;;;5089686;28;911;-64
2022/05/06 12:02:11;;;;;;;;;;;;;;;;;;5090653;28;966;-65
2022/05/06 12:04:37;;;;;;;;;;;;;;;;;;5091328;28;829;-65
2022/05/06 12:07:02;;;;;;;;;;;;;;;;;;5090507;28;994;-64
2022/05/06 12:09:28;;;;;;;;;;;;;;;;;;5089489;28;1957;-64
2022/05/06 12:12:07;;;;;;;;;;;;;;;;;;5090853;28;828;-64
2022/05/06 12:14:33;;;;;;;;;;;;;;;;;;5090413;28;852;-64
2022/05/06 12:16:59;;;;;;;;;;;;;;;;;;5088991;28;1332;-65
2022/05/06 12:19:36;;;;;;;;;;;;;;;;;;5090868;28;844;-65
2022/05/06 12:22:08;;;;;;;;;;;;;;;;;;5091020;28;864;-65
2022/05/06 12:24:46;;;;;;;;;;;;;;;;;;5091027;28;836;-65
2022/05/06 12:27:12;;;;;;;;;;;;;;;;;;5090298;28;1909;-65
2022/05/06 12:29:38;;;;;;;;;;;;;;;;;;5090793;28;852;-65
2022/05/06 12:32:04;;;;;;;;;;;;;;;;;;5090332;28;899;-64
2022/05/06 12:34:30;;;;;;;;;;;;;;;;;;5091227;28;828;-65
2022/05/06 12:37:12;;;;;;;;;;;;;;;;;;5089017;28;1219;-64
2022/05/06 12:39:39;;;;;;;;;;;;;;;;;;5090820;28;809;-64
2022/05/06 12:42:15;;;;;;;;;;;;;;;;;;5090424;28;840;-65
2022/05/06 12:44:40;;;;;;;;;;;;;;;;;;5091737;28;911;-64
2022/05/06 12:49:59;;;;;;;;;;;;;;;;;;5094400;28;670;-64
2022/05/06 12:52:25;;;;;;;;;;;;;;;;;;5094206;28;753;-64
2022/05/06 12:54:50;;;;;;;;;;;;;;;;;;5094259;28;883;-64
2022/05/06 12:57:15;;;;;;;;;;;;;;;;;;5093338;28;774;-65
2022/05/06 12:59:40;;;;;;;;;;;;;;;;;;5092735;28;809;-64
2022/05/06 13:02:07;;;;;;;;;;;;;;;;;;5092386;28;1027;-65
2022/05/06 13:04:32;;;;;;;;;;;;;;;;;;5093730;28;893;-64
2022/05/06 13:06:57;;;;;;;;;;;;;;;;;;5093976;28;1047;-64
2022/05/06 13:09:22;;;;;;;;;;;;;;;;;;5093672;28;1954;-64
2022/05/06 13:11:48;;;;;;;;;;;;;;;;;;5094064;28;1271;-64
2022/05/06 13:14:13;;;;;;;;;;;;;;;;;;5093226;28;903;-64
2022/05/06 13:16:39;;;;;;;;;;;;;;;;;;5092235;28;849;-65
2022/05/06 13:19:04;;;;;;;;;;;;;;;;;;5093665;28;915;-65
2022/05/06 13:21:29;;;;;;;;;;;;;;;;;;5092085;28;853;-65
2022/05/06 13:23:55;;;;;;;;;;;;;;;;;;5093073;28;1186;-65
2022/05/06 13:26:20;;;;;;;;;;;;;;;;;;5093206;28;868;-65
2022/05/06 13:28:45;;;;;;;;;;;;;;;;;;5093633;28;1972;-65
2022/05/06 13:31:11;;;;;;;;;;;;;;;;;;5093166;28;875;-63
2022/05/06 13:33:37;;;;;;;;;;;;;;;;;;5093372;28;804;-63
2022/05/06 13:36:03;;;;;;;;;;;;;;;;;;5093394;28;884;-64
2022/05/06 13:38:28;;;;;;;;;;;;;;;;;;5093185;28;879;-64
2022/05/06 13:40:53;;;;;;;;;;;;;;;;;;5093926;28;943;-64
2022/05/06 13:43:18;;;;;;;;;;;;;;;;;;5093514;28;848;-64
2022/05/06 13:45:44;;;;;;;;;;;;;;;;;;5093370;28;892;-63
2022/05/06 13:48:09;;;;;;;;;;;;;;;;;;5075101;28;1902;-64
2022/05/06 13:50:35;;;;;;;;;;;;;;;;;;5093310;28;832;-64
2022/05/06 13:53:00;;;;;;;;;;;;;;;;;;5093365;28;920;-64
2022/05/06 13:59:11;;;;;;;;;;;;;;;;;;5093305;28;727;-64
2022/05/06 14:01:04;;;;;;;;;;;;;;;;;;5079286;28;1428;-64
2022/05/06 14:03:29;;;;;;;;;;;;;;;;;;5093412;28;857;-65
2022/05/06 14:05:55;;;;;;;;;;;;;;;;;;5092501;28;837;-64
2022/05/06 14:08:20;;;;;;;;;;;;;;;;;;5091701;28;1905;-64
2022/05/06 14:10:45;;;;;;;;;;;;;;;;;;5093258;28;1136;-64
2022/05/06 14:13:10;;;;;;;;;;;;;;;;;;5092547;28;907;-64
2022/05/06 14:15:36;;;;;;;;;;;;;;;;;;5092907;28;1215;-64
2022/05/06 14:18:02;;;;;;;;;;;;;;;;;;5091435;28;1151;-64
2022/05/06 14:20:27;;;;;;;;;;;;;;;;;;5092199;28;911;-65
2022/05/06 14:22:52;;;;;;;;;;;;;;;;;;5091627;28;897;-64
2022/05/06 14:25:17;;;;;;;;;;;;;;;;;;5092612;28;853;-64
2022/05/06 14:27:44;;;;;;;;;;;;;;;;;;5092723;28;1917;-64
2022/05/06 14:30:10;;;;;;;;;;;;;;;;;;5092054;28;1166;-64
2022/05/06 14:32:35;;;;;;;;;;;;;;;;;;5092963;28;891;-64
2022/05/06 14:35:16;;;;;;;;;;;;;;;;;;5092381;28;943;-64
2022/05/06 14:37:45;;;;;;;;;;;;;;;;;;5092394;28;860;-64
2022/05/06 14:40:11;;;;;;;;;;;;;;;;;;5092675;28;856;-65
2022/05/06 14:42:36;;;;;;;;;;;;;;;;;;5092894;28;872;-64
2022/05/06 14:45:01;;;;;;;;;;;;;;;;;;5092830;28;928;-64
2022/05/06 14:47:26;;;;;;;;;;;;;;;;;;5092440;28;1956;-64
2022/05/06 14:49:51;;;;;;;;;;;;;;;;;;5092692;28;903;-64
2022/05/06 14:52:19;;;;;;;;;;;;;;;;;;5092510;28;887;-64
2022/05/06 14:54:44;;;;;;;;;;;;;;;;;;5092445;28;855;-64
2022/05/06 14:57:09;;;;;;;;;;;;;;;;;;5092171;28;958;-64
2022/05/06 14:59:35;;;;;;;;;;;;;;;;;;5092336;28;817;-63
2022/05/06 15:02:00;;;;;;;;;;;;;;;;;;5092370;28;831;-63
2022/05/06 15:04:25;;;;;;;;;;;;;;;;;;5092254;28;841;-63
2022/05/06 15:06:51;;;;;;;;;;;;;;;;;;5090999;28;914;-63
2022/05/06 15:09:20;;;;;;;;;;;;;;;;;;5090538;28;1902;-63
2022/05/06 15:11:46;;;;;;;;;;;;;;;;;;5092035;28;1184;-64
2022/05/06 15:14:11;;;;;;;;;;;;;;;;;;5092039;28;786;-63
2022/05/06 15:16:37;;;;;;;;;;;;;;;;;;5092223;28;864;-63
2022/05/06 15:21:46;;;;;;;;;;;;;;;;;;5092416;28;849;-63
2022/05/06 15:24:11;;;;;;;;;;;;;;;;;;5092076;28;943;-63
2022/05/06 15:26:36;;;;;;;;;;;;;;;;;;5091913;28;814;-63
2022/05/06 15:29:01;;;;;;;;;;;;;;;;;;5090906;28;1913;-63
2022/05/06 15:31:28;;;;;;;;;;;;;;;;;;5091671;28;959;-63
2022/05/06 15:33:53;;;;;;;;;;;;;;;;;;5092389;28;840;-63
2022/05/06 15:36:18;;;;;;;;;;;;;;;;;;5091346;28;943;-63
2022/05/06 15:38:43;;;;;;;;;;;;;;;;;;5090655;28;888;-64
2022/05/06 15:41:10;;;;;;;;;;;;;;;;;;5092157;28;888;-63
2022/05/06 15:43:36;;;;;;;;;;;;;;;;;;5091780;28;883;-63
2022/05/06 15:46:01;;;;;;;;;;;;;;;;;;5092125;28;852;-63
2022/05/06 15:48:27;;;;;;;;;;;;;;;;;;5091350;28;1955;-63
2022/05/06 15:50:52;;;;;;;;;;;;;;;;;;5091148;28;1296;-64
2022/05/06 15:53:17;;;;;;;;;;;;;;;;;;5091821;28;801;-64
2022/05/06 15:55:42;;;;;;;;;;;;;;;;;;5091153;28;1174;-64
2022/05/06 15:58:08;;;;;;;;;;;;;;;;;;5091940;28;829;-64
2022/05/06 16:00:33;;;;;;;;;;;;;;;;;;5091465;28;824;-64
2022/05/06 16:02:58;;;;;;;;;;;;;;;;;;5092604;28;892;-63
2022/05/06 16:05:23;;;;;;;;;;;;;;;;;;5073192;28;1483;-63
2022/05/06 16:07:49;;;;;;;;;;;;;;;;;;5091992;28;1894;-63
2022/05/06 16:10:14;;;;;;;;;;;;;;;;;;5091494;28;1188;-64
2022/05/06 16:12:41;;;;;;;;;;;;;;;;;;5090092;28;1191;-64
2022/05/06 16:15:17;;;;;;;;;;;;;;;;;;5091523;28;899;-64
2022/05/06 16:17:46;;;;;;;;;;;;;;;;;;5074193;28;1318;-63
2022/05/06 16:20:11;;;;;;;;;;;;;;;;;;5090881;28;832;-63
2022/05/06 16:22:36;;;;;;;;;;;;;;;;;;5091402;28;900;-63
2022/05/06 16:25:04;;;;;;;;;;;;;;;;;;5090575;28;1156;-63
2022/05/06 16:27:29;;;;;;;;;;;;;;;;;;5089466;28;1902;-63
2022/05/06 16:29:55;;;;;;;;;;;;;;;;;;5091284;28;816;-63
2022/05/06 16:32:20;;;;;;;;;;;;;;;;;;5090351;28;1062;-63
2022/05/06 16:37:29;;;;;;;;;;;;;;;;;;5089797;28;765;-63
2022/05/06 16:39:55;;;;;;;;;;;;;;;;;;5089701;28;1469;-63
2022/05/06 16:42:20;;;;;;;;;;;;;;;;;;5090057;28;919;-63
2022/05/06 16:44:46;;;;;;;;;;;;;;;;;;5089640;28;1560;-63
2022/05/06 16:47:14;;;;;;;;;;;;;;;;;;5091113;28;832;-63
2022/05/06 16:49:40;;;;;;;;;;;;;;;;;;5090816;28;1961;-63
2022/05/06 16:52:05;;;;;;;;;;;;;;;;;;5091332;28;856;-64
2022/05/06 16:54:31;;;;;;;;;;;;;;;;;;5091159;28;852;-63
2022/05/06 16:56:57;;;;;;;;;;;;;;;;;;5089879;28;832;-63
2022/05/06 16:59:23;;;;;;;;;;;;;;;;;;5091357;28;812;-63
2022/05/06 17:01:48;;;;;;;;;;;;;;;;;;5089813;28;863;-64
2022/05/06 17:04:13;;;;;;;;;;;;;;;;;;5091529;28;849;-64
2022/05/06 17:06:38;;;;;;;;;;;;;;;;;;5089696;28;935;-64
2022/05/06 17:09:04;;;;;;;;;;;;;;;;;;5089562;28;1901;-64
2022/05/06 17:11:29;;;;;;;;;;;;;;;;;;5089677;28;1194;-64
2022/05/06 17:13:54;;;;;;;;;;;;;;;;;;5089983;28;1333;-64
2022/05/06 17:16:20;;;;;;;;;;;;;;;;;;5091152;28;1346;-64
2022/05/06 17:18:46;;;;;;;;;;;;;;;;;;5089598;28;824;-64
2022/05/06 17:21:11;;;;;;;;;;;;;;;;;;5091556;28;875;-63
2022/05/06 17:23:37;;;;;;;;;;;;;;;;;;5091607;28;821;-64
2022/05/06 17:26:03;;;;;;;;;;;;;;;;;;5091114;28;920;-63
2022/05/06 17:28:28;;;;;;;;;;;;;;;;;;5089327;28;1965;-64
2022/05/06 17:30:55;;;;;;;;;;;;;;;;;;5091199;28;895;-64
2022/05/06 17:33:21;;;;;;;;;;;;;;;;;;5093444;28;836;-64
2022/05/06 17:35:46;;;;;;;;;;;;;;;;;;5094207;28;928;-63
2022/05/06 17:38:13;;;;;;;;;;;;;;;;;;5094384;28;910;-63
2022/05/06 17:40:38;;;;;;;;;;;;;;;;;;5075713;28;1187;-63
2022/05/06 17:43:03;;;;;;;;;;;;;;;;;;5094677;28;934;-63
2022/05/06 17:45:29;;;;;;;;;;;;;;;;;;5092465;28;1242;-62
2022/05/06 17:47:58;;;;;;;;;;;;;;;;;;5093052;28;1972;-63
2022/05/06 17:50:24;;;;;;;;;;;;;;;;;;5093612;28;1409;-63
2022/05/06 17:52:51;;;;;;;;;;;;;;;;;;5091421;28;1267;-63
2022/05/06 17:55:18;;;;;;;;;;;;;;;;;;5082814;28;1147;-63
2022/05/06 17:57:43;;;;;;;;;;;;;;;;;;5074421;28;1087;-63
2022/05/06 18:02:53;;;;;;;;;;;;;;;;;;5077522;28;592;-62
2022/05/06 18:05:18;;;;;;;;;;;;;;;;;;5075572;28;864;-63
2022/05/06 18:07:43;;;;;;;;;;;;;;;;;;5074429;28;1957;-63